Latest Weather Observations for Bendigo

IDV60801

Issued at 6:02 pm EDT Sunday 29 March 2015 (issued every 30 minutes, with the page automatically refreshed every 10 minutes)

About weather observations | Map of weather stations | Latest weather observations for VIC | Other Formats
Station Details ID: 081123 Name: BENDIGO AIRPORT Lat: -36.74 Lon: 144.33 Height: 208.0 m
Data from the previous 72 hours. | See also: Recent months at Bendigo
Date/Time
EDT
Temp
°C
App
Temp
°C
Dew
Point
Rel
Hum
%
Delta-T
°C
Wind Press
QNH
hPa
Press
MSL
hPa
Rain
since 9 am
mm
Dir
 
Spd
km/h
Gust
km/h
Spd
kts
Gust
kts
29/06:00pm 25.0 21.3 4.7 27 10.3 WNW 13 19 7 10 1020.5 1020.0 0.0
29/05:30pm 24.3 20.2 4.1 27 10.0 NNW 15 22 8 12 1020.4 1019.9 0.0
29/05:00pm 24.9 21.7 5.2 28 10.0 NW 11 20 6 11 1020.3 1019.8 0.0
29/04:30pm 24.6 20.7 5.4 29 9.8 WNW 15 28 8 15 1020.4 1019.9 0.0
29/04:00pm 24.7 20.3 5.0 28 10.0 NW 17 26 9 14 1020.6 1020.1 0.0
29/03:30pm 24.3 20.3 5.1 29 9.8 NW 15 26 8 14 1020.8 1020.3 0.0
29/03:00pm 24.0 19.8 5.8 31 9.3 NW 17 28 9 15 1021.2 1020.7 0.0
29/02:30pm 24.1 19.7 5.0 29 9.6 NW 17 28 9 15 1021.5 1021.0 0.0
29/02:00pm 22.3 17.7 5.7 34 8.4 NNW 19 30 10 16 1022.0 1021.4 0.0
29/01:30pm 22.6 19.4 6.8 36 8.2 NNW 13 24 7 13 1022.5 1021.9 0.0
29/01:00pm 21.9 19.3 7.7 40 7.4 NNW 11 20 6 11 1022.8 1022.2 0.0
29/12:30pm 21.5 18.6 8.1 42 7.1 WNW 13 20 7 11 1023.1 1022.6 0.0
29/12:00pm 20.6 17.6 7.9 44 6.6 NW 13 22 7 12 1023.5 1023.0 0.0
29/11:30am 19.9 18.1 7.9 46 6.2 W 7 13 4 7 1023.6 1023.1 0.0
29/11:00am 18.9 16.7 8.0 49 5.6 NNW 9 17 5 9 1024.0 1023.5 0.0
29/10:30am 17.8 16.2 8.1 53 5.0 N 6 11 3 6 1023.9 1023.4 0.0
29/10:00am 16.2 14.6 8.2 59 4.1 NE 6 9 3 5 1024.0 1023.5 0.0
29/09:30am 13.8 11.6 7.8 67 3.0 SSE 9 13 5 7 1023.8 1023.3 0.0
29/09:00am 12.1 9.8 7.4 73 2.3 SE 9 13 5 7 1023.6 1023.1 0.0
29/08:30am 10.2 8.3 7.4 83 1.3 SSE 7 9 4 5 1023.4 1022.9 0.0
29/08:00am 5.8 4.2 4.3 90 0.6 SSW 2 7 1 4 1023.1 1022.6 0.0
29/07:30am 5.5 4.2 4.0 90 0.6 CALM 0 0 0 0 1022.6 1022.0 0.0
29/07:00am 6.2 4.9 4.0 86 0.9 CALM 0 0 0 0 1022.4 1021.8 0.0
29/06:30am 6.7 4.2 4.9 88 0.8 SSE 7 9 4 5 1022.0 1021.4 0.0
29/06:00am 5.8 4.4 3.8 87 0.9 CALM 0 0 0 0 1021.6 1021.1 0.0
29/05:30am 6.3 5.0 4.1 86 1.0 CALM 0 7 0 4 1021.2 1020.7 0.0
29/05:00am 5.9 4.5 3.4 84 1.1 CALM 0 0 0 0 1021.0 1020.5 0.0
29/04:30am 5.9 4.4 3.1 82 1.2 CALM 0 0 0 0 1020.9 1020.4 0.0
29/04:00am 6.6 5.3 4.1 84 1.1 CALM 0 0 0 0 1020.8 1020.3 0.0
29/03:30am 7.3 6.0 4.1 80 1.4 CALM 0 0 0 0 1021.0 1020.5 0.0
29/03:00am 7.6 6.2 3.8 77 1.6 CALM 0 0 0 0 1021.3 1020.8 0.0
29/02:30am 8.9 7.8 5.3 78 1.6 CALM 0 0 0 0 1021.5 1021.0 0.0
29/02:00am 8.6 7.4 4.8 77 1.7 CALM 0 0 0 0 1021.7 1021.2 0.0
29/01:30am 9.4 8.3 5.2 75 1.9 CALM 0 0 0 0 1021.9 1021.3 0.0
29/01:00am 9.7 8.6 5.3 74 2.0 CALM 0 0 0 0 1022.0 1021.4 0.0
29/12:30am 9.8 8.7 5.2 73 2.1 CALM 0 0 0 0 1022.3 1021.7 0.0
29/12:00am 10.5 9.4 5.3 70 2.4 CALM 0 0 0 0 1022.4 1021.8 0.0
 
Date/Time
EDT
Temp
°C
App
Temp
°C
Dew
Point
Rel
Hum
%
Delta-T
°C
Wind Press
QNH
hPa
Press
MSL
hPa
Rain
since 9 am
mm
Dir
 
Spd
km/h
Gust
km/h
Spd
kts
Gust
kts
28/11:30pm 10.4 9.2 4.5 67 2.7 CALM 0 0 0 0 1022.2 1021.6 0.0
28/11:00pm 10.5 9.4 4.9 68 2.6 CALM 0 0 0 0 1022.2 1021.6 0.0
28/10:30pm 11.2 10.1 4.9 65 2.9 CALM 0 0 0 0 1022.2 1021.6 0.0
28/10:00pm 10.9 9.6 4.1 63 3.1 CALM 0 0 0 0 1022.3 1021.7 0.0
28/09:30pm 12.4 11.2 4.6 59 3.6 CALM 0 0 0 0 1022.1 1021.5 0.0
28/09:00pm 12.5 11.3 4.7 59 3.6 CALM 0 0 0 0 1022.0 1021.4 0.0
28/08:30pm 13.5 12.4 5.2 57 3.9 CALM 0 0 0 0 1021.7 1021.2 0.0
28/08:00pm 15.0 14.0 5.5 53 4.5 CALM 0 0 0 0 1021.6 1021.1 0.0
28/07:30pm 18.3 16.9 5.5 43 6.3 WNW 2 7 1 4 1021.5 1021.0 0.0
28/07:00pm 19.2 17.4 5.6 41 6.7 W 4 7 2 4 1021.3 1020.8 0.0
28/06:30pm 19.8 17.1 5.5 39 7.1 W 9 11 5 6 1021.3 1020.8 0.0
28/06:00pm 20.0 17.6 5.3 38 7.3 NW 7 11 4 6 1021.1 1020.6 0.0
28/05:30pm 20.9 18.6 5.7 37 7.6 WNW 7 13 4 7 1021.3 1020.8 0.0
28/05:00pm 20.1 17.4 5.4 38 7.3 N 9 15 5 8 1021.6 1021.1 0.0
28/04:30pm 20.4 17.2 5.2 37 7.5 WNW 11 17 6 9 1021.7 1021.2 0.0
28/04:00pm 20.2 17.8 5.1 37 7.4 SW 7 15 4 8 1022.0 1021.4 0.0
28/03:30pm 20.9 17.4 5.3 36 7.8 W 13 20 7 11 1022.3 1021.7 0.0
28/03:00pm 19.9 16.3 5.2 38 7.2 WSW 13 20 7 11 1022.6 1022.0 0.0
28/02:30pm 19.9 17.3 5.9 40 7.0 N 9 17 5 9 1023.1 1022.6 0.0
28/02:00pm 19.5 16.9 5.9 41 6.8 N 9 17 5 9 1023.6 1023.1 0.0
28/01:30pm 19.1 16.8 5.9 42 6.6 SW 7 15 4 8 1023.9 1023.4 0.0
28/01:00pm 18.3 15.6 5.5 43 6.3 NE 9 15 5 8 1024.2 1023.7 0.0
28/12:30pm 17.7 15.0 5.6 45 5.9 NW 9 13 5 7 1024.7 1024.2 0.0
28/12:00pm 17.6 15.5 5.9 46 5.7 NNW 6 17 3 9 1025.3 1024.8 0.0
28/11:30am 16.8 14.7 5.7 48 5.4 NNW 6 13 3 7 1025.3 1024.8 0.0
28/11:00am 15.9 13.7 6.1 52 4.8 W 7 13 4 7 1026.0 1025.5 0.0
28/10:30am 15.4 14.1 6.1 54 4.5 NNW 2 7 1 4 1026.1 1025.6 0.0
28/10:00am 14.2 11.6 6.3 59 3.8 SSE 9 15 5 8 1026.0 1025.5 0.0
28/09:30am 14.1 13.5 7.2 63 3.4 CALM 0 7 0 4 1026.1 1025.6 0.0
28/09:00am 11.6 11.0 7.3 75 2.1 CALM 0 0 0 0 1025.9 1025.4 0.0
28/08:30am 8.0 7.3 6.9 93 0.5 CALM 0 0 0 0 1025.7 1025.2 0.0
28/08:00am 5.0 3.7 4.1 94 0.4 CALM 0 0 0 0 1025.3 1024.8 0.0
28/07:30am 4.3 2.9 3.3 93 0.4 CALM 0 0 0 0 1025.0 1024.5 0.0
28/07:00am 4.3 2.9 3.3 93 0.4 CALM 0 0 0 0 1024.8 1024.3 0.0
28/06:30am 5.0 3.7 4.0 93 0.4 CALM 0 0 0 0 1024.9 1024.4 0.0
28/06:00am 5.4 4.2 4.5 94 0.4 CALM 0 0 0 0 1024.8 1024.3 0.0
28/05:30am 5.4 4.1 4.2 92 0.5 CALM 0 0 0 0 1024.7 1024.2 0.0
28/05:00am 5.5 4.2 4.3 92 0.5 CALM 0 0 0 0 1024.5 1024.0 0.0
28/04:30am 6.1 4.8 4.3 88 0.8 CALM 0 0 0 0 1024.5 1024.0 0.0
28/04:00am 7.0 5.9 5.3 89 0.8 CALM 0 0 0 0 1024.4 1023.9 0.0
28/03:30am 8.1 7.1 5.6 84 1.1 CALM 0 0 0 0 1024.5 1024.0 0.0
28/03:19am 8.3 7.4 5.9 85 1.1 CALM 0 0 0 0 1024.5 1024.0 0.0
28/03:00am 9.3 8.4 5.9 79 1.6 CALM 0 0 0 0 1024.8 1024.3 0.0
28/02:30am 10.6 8.4 6.2 74 2.1 SSW 7 11 4 6 1024.8 1024.3 0.0
28/02:14am 11.5 9.6 6.8 73 2.3 WSW 6 9 3 5 1024.8 1024.3 0.0
28/02:10am 11.5 9.4 6.8 73 2.3 SW 7 9 4 5 1024.8 1024.3 0.0
28/02:00am 11.6 9.5 6.7 72 2.3 SW 7 11 4 6 1024.8 1024.3 0.0
28/01:37am 12.9 10.9 7.1 68 2.8 SW 7 13 4 7 1024.9 1024.4 0.0
28/01:30am 13.1 10.7 7.1 67 2.9 SSW 9 15 5 8 1025.0 1024.5 0.0
28/01:00am 13.2 10.8 6.8 65 3.1 SSW 9 15 5 8 1025.0 1024.5 0.0
28/12:30am 13.3 10.0 6.6 64 3.3 SSW 13 17 7 9 1025.2 1024.7 0.0
28/12:25am 13.4 10.5 6.7 64 3.3 SSW 11 17 6 9 1025.2 1024.7 0.0
28/12:03am 13.4 10.3 7.4 67 3.0 SSW 13 20 7 11 1025.4 1024.9 0.0
28/12:00am 13.5 10.4 7.3 66 3.0 SSW 13 20 7 11 1025.4 1024.9 0.0
 
Date/Time
EDT
Temp
°C
App
Temp
°C
Dew
Point
Rel
Hum
%
Delta-T
°C
Wind Press
QNH
hPa
Press
MSL
hPa
Rain
since 9 am
mm
Dir
 
Spd
km/h
Gust
km/h
Spd
kts
Gust
kts
27/11:30pm 13.8 9.9 7.3 65 3.2 SW 17 24 9 13 1025.3 1024.8 0.0
27/11:00pm 14.2 11.1 7.3 63 3.4 SSW 13 17 7 9 1025.3 1024.8 0.0
27/10:30pm 14.5 11.8 7.5 63 3.5 SW 11 17 6 9 1025.3 1024.8 0.0
27/10:00pm 14.7 11.2 7.3 61 3.7 SW 15 20 8 11 1025.1 1024.6 0.0
27/09:30pm 14.7 12.0 5.8 55 4.3 SSW 9 13 5 7 1025.0 1024.5 0.0
27/09:00pm 14.7 12.0 5.8 55 4.3 SSW 9 15 5 8 1024.7 1024.2 0.0
27/08:30pm 14.1 11.0 5.5 56 4.1 SSW 11 17 6 9 1024.4 1023.9 0.0
27/08:00pm 14.2 10.6 4.8 53 4.4 SSW 13 20 7 11 1024.1 1023.6 0.0
27/07:30pm 14.9 11.2 4.6 50 4.8 SSW 13 20 7 11 1023.8 1023.3 0.0
27/07:00pm 15.6 11.1 4.3 47 5.3 SSW 17 24 9 13 1023.7 1023.2 0.0
27/06:30pm 16.5 11.7 4.5 45 5.7 SSW 19 28 10 15 1023.4 1022.9 0.0
27/06:00pm 16.9 11.1 4.6 44 5.9 SW 24 33 13 18 1023.1 1022.6 0.0
27/05:30pm 18.1 12.4 4.7 41 6.5 SW 24 33 13 18 1022.9 1022.3 0.0
27/05:00pm 18.5 13.2 5.0 41 6.6 SW 22 37 12 20 1022.8 1022.2 0.0
27/04:30pm 18.6 13.8 4.8 40 6.7 WSW 19 32 10 17 1022.9 1022.3 0.0
27/04:00pm 17.5 12.4 6.1 47 5.6 SSW 22 33 12 18 1023.0 1022.5 0.0
27/03:30pm 18.4 13.1 6.6 46 5.9 WSW 24 35 13 19 1023.3 1022.8 0.0
27/03:00pm 17.4 12.2 5.7 46 5.7 SW 22 33 12 18 1023.3 1022.8 0.0
27/02:30pm 16.9 12.3 6.7 51 5.1 SW 20 30 11 16 1023.7 1023.2 0.0
27/02:00pm 17.0 13.0 6.5 50 5.2 SW 17 24 9 13 1023.9 1023.4 0.0
27/01:30pm 16.5 11.9 6.3 51 5.0 SW 20 30 11 16 1024.3 1023.8 0.0
27/01:00pm 16.2 11.9 7.7 57 4.3 SSW 20 33 11 18 1024.7 1024.2 0.0
27/12:30pm 15.5 9.8 6.8 56 4.3 SW 26 41 14 22 1024.9 1024.4 0.0
27/12:00pm 15.8 11.4 7.6 58 4.1 WSW 20 32 11 17 1025.1 1024.6 0.0
27/11:30am 14.6 10.2 7.6 63 3.5 SW 20 33 11 18 1025.1 1024.6 0.0
27/11:00am 14.4 10.1 7.7 64 3.3 SW 20 32 11 17 1025.1 1024.6 0.0
27/10:30am 13.7 8.9 7.5 66 3.1 WSW 22 32 12 17 1024.9 1024.4 0.0
27/10:00am 14.0 8.9 7.8 66 3.1 SW 24 37 13 20 1024.5 1024.0 0.0
27/09:30am 12.8 7.7 7.7 71 2.5 WSW 24 35 13 19 1024.4 1023.9 0.0
27/09:00am 12.6 8.4 8.3 75 2.1 WSW 20 30 11 16 1024.1 1023.6 0.0
27/08:30am 11.8 8.6 8.6 81 1.6 WSW 15 24 8 13 1023.8 1023.3 0.0
27/08:00am 10.6 10.1 9.2 91 0.7 WNW 2 9 1 5 1023.6 1023.1 0.0
27/07:30am 10.1 8.5 8.7 91 0.7 WSW 7 9 4 5 1023.3 1022.8 0.0
27/07:00am 10.3 8.3 8.7 90 0.8 WSW 9 15 5 8 1023.0 1022.5 0.0
27/06:30am 10.5 8.6 8.9 90 0.8 W 9 13 5 7 1022.8 1022.2 0.0
27/06:00am 10.9 8.2 9.0 88 0.9 W 13 17 7 9 1022.4 1021.8 0.0
27/05:30am 11.3 8.3 9.2 87 1.1 WSW 15 22 8 12 1022.2 1021.6 0.0
27/05:00am 11.6 7.8 9.2 85 1.2 W 19 28 10 15 1022.1 1021.5 0.0
27/04:30am 11.6 8.2 9.3 86 1.2 WSW 17 24 9 13 1022.0 1021.4 0.0
27/04:00am 11.5 8.5 9.2 86 1.2 W 15 26 8 14 1022.1 1021.5 0.0
27/03:30am 11.4 8.0 9.1 86 1.2 WNW 17 20 9 11 1022.1 1021.5 0.0
27/03:00am 11.4 8.0 9.3 87 1.1 WNW 17 24 9 13 1022.1 1021.5 0.0
27/02:30am 11.3 8.7 9.4 88 1.0 WNW 13 20 7 11 1022.2 1021.6 0.0
27/02:00am 11.9 8.5 9.1 83 1.4 WNW 17 24 9 13 1022.2 1021.6 0.0
27/01:30am 11.8 8.6 8.5 80 1.6 WNW 15 24 8 13 1022.0 1021.4 0.0
27/01:00am 12.1 8.8 8.2 77 1.9 W 15 20 8 11 1021.9 1021.3 0.0
27/12:30am 12.1 8.1 8.2 77 1.9 WNW 19 35 10 19 1021.7 1021.2 0.0
27/12:14am 12.0 8.4 8.5 79 1.8 WNW 17 26 9 14 1021.6 1021.1 0.0
27/12:00am 11.8 7.7 8.5 80 1.6 WNW 20 33 11 18 1021.7 1021.2 0.0
 
Date/Time
EDT
Temp
°C
App
Temp
°C
Dew
Point
Rel
Hum
%
Delta-T
°C
Wind Press
QNH
hPa
Press
MSL
hPa
Rain
since 9 am
mm
Dir
 
Spd
km/h
Gust
km/h
Spd
kts
Gust
kts
26/11:58pm 11.9 7.7 8.4 79 1.7 WNW 20 33 11 18 1021.7 1021.2 0.0
26/11:30pm 13.0 8.2 7.2 68 2.8 WNW 22 37 12 20 1021.6 1021.1 0.0
26/11:00pm 13.2 8.3 7.0 66 3.0 WNW 22 33 12 18 1021.5 1021.0 0.0
26/10:35pm 13.3 7.3 7.1 66 3.0 WNW 28 48 15 26 1021.3 1020.8 0.0
26/10:30pm 13.4 8.1 6.7 64 3.3 WNW 24 35 13 19 1021.3 1020.8 0.0
26/10:00pm 13.6 8.3 6.7 63 3.4 WNW 24 37 13 20 1021.0 1020.5 0.0
26/09:30pm 14.0 7.8 6.1 59 3.8 WNW 28 44 15 24 1020.7 1020.2 0.0
26/09:14pm 14.2 8.0 6.1 58 3.9 WNW 28 46 15 25 1020.7 1020.2 0.0
26/09:00pm 14.3 7.3 5.9 57 4.0 WNW 32 46 17 25 1020.5 1020.0 0.0
26/08:30pm 14.6 9.0 5.4 54 4.4 WNW 24 41 13 22 1020.2 1019.7 0.0
26/08:00pm 14.8 8.4 5.1 52 4.6 W 28 48 15 26 1020.0 1019.5 0.0
26/07:30pm 14.8 8.7 4.8 51 4.7 WNW 26 41 14 22 1019.7 1019.2 0.0
26/07:00pm 15.3 8.3 4.1 47 5.2 W 30 48 16 26 1019.4 1018.9 0.0
26/06:41pm 15.5 8.1 3.9 46 5.4 WNW 32 50 17 27 1019.2 1018.7 0.0
26/06:30pm 15.7 8.6 3.5 44 5.6 WNW 30 46 16 25 1019.2 1018.7 0.0

Other Formats:

Comma delimited format used in spreadsheet applications
http://www.bom.gov.au/fwo/IDV60801/IDV60801.94855.axf

JavaScript Object Notation format (JSON) in row-major order
http://www.bom.gov.au/fwo/IDV60801/IDV60801.94855.json